createdAt,value
2022-08-01T00:00:53.315Z,47.50
2022-08-01T00:03:55.397Z,47.40
2022-08-01T00:06:57.318Z,47.40
2022-08-01T00:09:59.111Z,47.40
2022-08-01T00:13:00.977Z,47.50
2022-08-01T00:16:02.812Z,47.50
2022-08-01T00:19:05.002Z,47.40
2022-08-01T00:22:07.437Z,47.40
2022-08-01T00:25:10.059Z,47.30
2022-08-01T00:28:12.310Z,47.30
2022-08-01T00:31:14.203Z,47.30
2022-08-01T00:34:16.082Z,47.30
2022-08-01T00:37:18.059Z,47.20
2022-08-01T00:40:19.892Z,47.30
2022-08-01T00:43:21.697Z,47.30
2022-08-01T00:46:23.509Z,47.30
2022-08-01T00:49:25.395Z,47.20
2022-08-01T00:52:27.572Z,47.20
2022-08-01T00:55:29.869Z,47.30
2022-08-01T00:58:33.212Z,47.30
2022-08-01T01:01:39.717Z,47.20
2022-08-01T01:04:42.084Z,47.20
2022-08-01T01:08:00.342Z,47.20
2022-08-01T01:11:09.950Z,47.30
2022-08-01T01:14:21.502Z,47.20
2022-08-01T01:17:51.094Z,47.20
2022-08-01T01:21:13.203Z,47.20
2022-08-01T01:24:32.424Z,47.20
2022-08-01T01:27:45.955Z,47.10
2022-08-01T01:30:54.965Z,47.10
2022-08-01T01:33:58.824Z,47.10
2022-08-01T01:37:03.441Z,47.20
2022-08-01T01:40:07.848Z,47.10
2022-08-01T01:43:12.367Z,47.10
2022-08-01T01:46:19.090Z,47.10
2022-08-01T01:49:24.408Z,47.00
2022-08-01T01:52:28.782Z,47.00
2022-08-01T01:55:31.866Z,46.90
2022-08-01T01:58:35.650Z,46.90
2022-08-01T02:01:58.609Z,46.90
2022-08-01T02:05:00.257Z,47.00
2022-08-01T02:08:04.856Z,47.00
2022-08-01T02:11:19.649Z,47.00
2022-08-01T02:14:23.752Z,47.00
2022-08-01T02:17:26.206Z,47.00
2022-08-01T02:20:31.272Z,47.00
2022-08-01T02:23:36.985Z,47.00
2022-08-01T02:26:42.354Z,47.00
2022-08-01T02:30:06.737Z,46.90
2022-08-01T02:33:21.895Z,47.00
2022-08-01T02:36:31.300Z,47.00
2022-08-01T02:39:38.584Z,46.90
2022-08-01T02:42:44.407Z,46.90
2022-08-01T02:45:52.536Z,46.90
2022-08-01T02:48:56.547Z,46.90
2022-08-01T02:51:59.972Z,46.90
2022-08-01T02:55:02.997Z,46.90
2022-08-01T02:58:05.577Z,46.80
2022-08-01T03:01:12.079Z,46.90
2022-08-01T03:04:15.428Z,46.90
2022-08-01T03:07:17.588Z,46.80
2022-08-01T03:10:22.131Z,47.00
2022-08-01T03:13:25.327Z,46.80
2022-08-01T03:16:28.001Z,46.80
2022-08-01T03:19:31.674Z,46.80
2022-08-01T03:22:34.605Z,46.70
2022-08-01T03:25:39.669Z,46.70
2022-08-01T03:28:45.245Z,46.80
2022-08-01T03:31:48.945Z,46.70
2022-08-01T03:34:50.903Z,46.70
2022-08-01T03:38:15.469Z,46.70
2022-08-01T03:41:22.136Z,46.60
2022-08-01T03:44:27.440Z,46.60
2022-08-01T03:47:34.307Z,46.70
2022-08-01T03:50:44.922Z,46.70
2022-08-01T03:53:49.459Z,46.60
2022-08-01T03:56:52.694Z,46.60
2022-08-01T03:59:54.713Z,46.60
2022-08-01T04:02:56.829Z,46.50
2022-08-01T04:05:58.793Z,46.60
2022-08-01T04:09:01.047Z,46.60
2022-08-01T04:12:12.332Z,46.60
2022-08-01T04:15:15.098Z,46.60
2022-08-01T04:18:16.902Z,46.60
2022-08-01T04:21:29.961Z,46.60
2022-08-01T04:24:33.297Z,46.50
2022-08-01T04:27:48.521Z,46.60
2022-08-01T04:31:01.276Z,46.60
2022-08-01T04:34:06.660Z,46.70
2022-08-01T04:37:13.213Z,46.70
2022-08-01T04:40:17.011Z,46.70
2022-08-01T04:43:19.824Z,46.70
2022-08-01T04:46:22.512Z,46.70
2022-08-01T04:49:25.437Z,46.80
2022-08-01T04:52:34.507Z,46.70
2022-08-01T04:55:36.549Z,46.70
2022-08-01T04:58:38.402Z,46.80
2022-08-01T05:01:40.238Z,46.80
2022-08-01T05:04:44.067Z,46.80
2022-08-01T05:07:45.887Z,46.80
2022-08-01T05:10:47.677Z,47.50
2022-08-01T05:13:49.883Z,46.90
2022-08-01T05:16:52.420Z,46.80
2022-08-01T05:19:54.366Z,46.80
2022-08-01T05:22:56.223Z,46.90
2022-08-01T05:25:59.582Z,47.00
2022-08-01T05:29:01.757Z,47.00
2022-08-01T05:32:04.562Z,47.00
2022-08-01T05:35:07.504Z,47.00
2022-08-01T05:38:09.277Z,47.10
2022-08-01T05:41:16.780Z,47.20
2022-08-01T05:44:18.688Z,47.20
2022-08-01T05:47:20.461Z,47.30
2022-08-01T05:50:22.268Z,47.30
2022-08-01T05:53:24.084Z,47.40
2022-08-01T05:56:30.513Z,47.50
2022-08-01T05:59:34.067Z,47.50
2022-08-01T06:02:40.455Z,47.60
2022-08-01T06:05:42.378Z,47.70
2022-08-01T06:08:44.309Z,47.80
2022-08-01T06:11:46.119Z,47.80
2022-08-01T06:14:47.882Z,47.80
2022-08-01T06:17:49.682Z,47.90
2022-08-01T06:20:51.502Z,48.00
2022-08-01T06:23:53.271Z,48.00
2022-08-01T06:26:55.064Z,48.10
2022-08-01T06:29:57.597Z,48.10
2022-08-01T06:33:00.906Z,48.00
2022-08-01T06:36:02.809Z,48.10
2022-08-01T06:39:04.700Z,48.10
2022-08-01T06:42:06.957Z,48.20
2022-08-01T06:45:11.396Z,48.20
2022-08-01T06:48:13.221Z,48.20
2022-08-01T06:51:17.729Z,48.20
2022-08-01T06:54:19.566Z,48.70
2022-08-01T06:57:21.423Z,48.10
2022-08-01T07:00:25.292Z,48.10
2022-08-01T07:03:28.015Z,48.10
2022-08-01T07:06:49.800Z,48.10
2022-08-01T07:09:51.581Z,48.10
2022-08-01T07:12:55.203Z,48.10
2022-08-01T07:15:57.102Z,48.10
2022-08-01T07:18:58.896Z,48.10
2022-08-01T07:22:00.693Z,48.10
2022-08-01T07:25:06.919Z,48.20
2022-08-01T07:28:08.922Z,48.20
2022-08-01T07:31:10.727Z,48.10
2022-08-01T07:34:12.544Z,48.10
2022-08-01T07:37:14.460Z,48.70
2022-08-01T07:40:17.516Z,48.10
2022-08-01T07:43:19.339Z,48.10
2022-08-01T07:46:21.174Z,48.10
2022-08-01T07:49:23.316Z,48.10
2022-08-01T07:52:25.149Z,48.10
2022-08-01T07:55:27.409Z,48.10
2022-08-01T07:58:30.115Z,48.10
2022-08-01T08:01:32.087Z,48.20
2022-08-01T08:04:33.952Z,48.80
2022-08-01T08:07:35.847Z,48.30
2022-08-01T08:10:37.873Z,48.30
2022-08-01T08:13:40.029Z,48.40
2022-08-01T08:16:43.095Z,48.50
2022-08-01T08:19:45.366Z,48.60
2022-08-01T08:22:47.184Z,48.60
2022-08-01T08:25:49.026Z,48.60
2022-08-01T08:28:50.811Z,48.60
2022-08-01T08:31:54.255Z,48.60
2022-08-01T08:34:55.996Z,48.60
2022-08-01T08:37:58.153Z,48.60
2022-08-01T08:41:00.904Z,48.70
2022-08-01T08:44:10.235Z,48.70
2022-08-01T08:47:19.022Z,48.80
2022-08-01T08:50:22.031Z,48.90
2022-08-01T08:53:24.232Z,49.00
2022-08-01T08:56:28.321Z,48.90
2022-08-01T08:59:30.934Z,48.90
2022-08-01T09:02:32.816Z,48.80
2022-08-01T09:05:38.815Z,48.90
2022-08-01T09:08:41.356Z,48.80
2022-08-01T09:11:43.486Z,48.90
2022-08-01T09:14:55.416Z,48.90
2022-08-01T09:17:57.194Z,48.80
2022-08-01T09:21:24.061Z,48.80
2022-08-01T09:24:30.589Z,48.70
2022-08-01T09:27:33.481Z,48.70
2022-08-01T09:30:42.777Z,48.60
2022-08-01T09:33:55.730Z,48.60
2022-08-01T09:37:03.107Z,48.70
2022-08-01T09:40:05.418Z,48.70
2022-08-01T09:43:14.815Z,48.70
2022-08-01T09:46:17.884Z,48.80
2022-08-01T09:49:50.752Z,48.80
2022-08-01T09:52:57.944Z,48.70
2022-08-01T09:56:13.093Z,48.60
2022-08-01T09:59:14.897Z,48.60
2022-08-01T10:02:30.651Z,48.60
2022-08-01T10:05:37.238Z,48.80
2022-08-01T10:08:49.029Z,48.60
2022-08-01T10:11:51.665Z,49.10
2022-08-01T10:14:56.266Z,48.40
2022-08-01T10:18:01.439Z,48.40
2022-08-01T10:21:08.819Z,48.50
2022-08-01T10:24:13.554Z,48.40
2022-08-01T10:27:17.296Z,48.50
2022-08-01T10:30:27.084Z,49.00
2022-08-01T10:33:52.777Z,48.40
2022-08-01T10:36:52.689Z,48.40
2022-08-01T10:40:27.089Z,48.40
2022-08-01T10:43:21.159Z,48.40
2022-08-01T10:46:24.396Z,48.40
2022-08-01T10:49:31.594Z,48.30
2022-08-01T10:52:39.137Z,48.40
2022-08-01T10:55:49.827Z,48.40
2022-08-01T10:59:06.503Z,48.40
2022-08-01T11:02:32.300Z,48.40
2022-08-01T11:05:36.226Z,48.40
2022-08-01T11:08:38.918Z,48.40
2022-08-01T11:12:12.873Z,48.90
2022-08-01T11:15:18.216Z,48.40
2022-08-01T11:18:37.428Z,48.50
2022-08-01T11:21:56.880Z,48.50
2022-08-01T11:25:02.220Z,48.50
2022-08-01T11:28:28.568Z,48.50
2022-08-01T11:31:37.409Z,48.60
2022-08-01T11:34:56.862Z,48.60
2022-08-01T11:38:25.714Z,48.60
2022-08-01T11:41:38.479Z,48.60
2022-08-01T11:44:50.797Z,48.60
2022-08-01T11:47:52.886Z,48.60
2022-08-01T11:50:56.502Z,48.50
2022-08-01T11:53:59.841Z,48.40
2022-08-01T11:57:07.566Z,48.40
2022-08-01T12:00:19.376Z,48.40
2022-08-01T12:03:39.541Z,48.60
2022-08-01T12:06:46.447Z,48.50
2022-08-01T12:10:05.347Z,48.60
2022-08-01T12:13:07.781Z,48.70
2022-08-01T12:16:11.031Z,48.80
2022-08-01T12:19:22.096Z,48.80
2022-08-01T12:22:26.053Z,48.80
2022-08-01T12:25:28.029Z,48.90
2022-08-01T12:28:29.881Z,49.00
2022-08-01T12:31:33.674Z,48.90
2022-08-01T12:34:35.482Z,48.80
2022-08-01T12:37:41.970Z,48.90
2022-08-01T12:40:47.532Z,48.90
2022-08-01T12:43:53.568Z,48.90
2022-08-01T12:46:55.976Z,48.60
2022-08-01T12:49:57.853Z,48.60
2022-08-01T12:52:59.996Z,48.90
2022-08-01T12:56:01.783Z,48.90
2022-08-01T12:59:21.336Z,49.00
2022-08-01T13:02:33.545Z,48.90
2022-08-01T13:05:56.529Z,48.90
2022-08-01T13:09:11.476Z,48.90
2022-08-01T13:12:14.022Z,49.00
2022-08-01T13:15:21.757Z,49.00
2022-08-01T13:18:25.148Z,48.80
2022-08-01T13:21:52.498Z,49.00
2022-08-01T13:24:52.101Z,48.90
2022-08-01T13:28:17.335Z,48.90
2022-08-01T13:31:19.320Z,49.00
2022-08-01T13:34:34.965Z,48.90
2022-08-01T13:37:39.038Z,49.60
2022-08-01T13:40:41.088Z,49.00
2022-08-01T13:43:58.599Z,49.60
2022-08-01T13:47:02.314Z,48.90
2022-08-01T13:50:18.452Z,49.00
2022-08-01T13:53:20.281Z,48.90
2022-08-01T13:56:22.171Z,48.80
2022-08-01T13:59:23.953Z,48.90
2022-08-01T14:02:25.844Z,48.90
2022-08-01T14:05:27.757Z,48.80
2022-08-01T14:08:29.655Z,48.80
2022-08-01T14:11:37.364Z,48.90
2022-08-01T14:14:39.412Z,48.90
2022-08-01T14:17:47.857Z,48.80
2022-08-01T14:20:49.898Z,48.90
2022-08-01T14:23:55.519Z,48.80
2022-08-01T14:26:57.277Z,48.70
2022-08-01T14:30:03.119Z,48.80
2022-08-01T14:33:05.986Z,48.90
2022-08-01T14:36:28.973Z,48.50
2022-08-01T14:39:29.777Z,48.60
2022-08-01T14:42:31.852Z,48.70
2022-08-01T14:45:34.186Z,48.80
2022-08-01T14:48:36.353Z,48.90
2022-08-01T14:51:39.120Z,48.90
2022-08-01T14:54:41.176Z,48.90
2022-08-01T14:57:42.931Z,48.90
2022-08-01T15:00:44.801Z,48.90
2022-08-01T15:03:47.305Z,48.80
2022-08-01T15:06:49.237Z,48.90
2022-08-01T15:09:51.104Z,48.80
2022-08-01T15:12:52.998Z,48.80
2022-08-01T15:15:54.784Z,48.80
2022-08-01T15:19:02.109Z,48.80
2022-08-01T15:22:04.031Z,48.80
2022-08-01T15:25:06.431Z,48.90
2022-08-01T15:28:12.177Z,48.90
2022-08-01T15:31:14.439Z,48.90
2022-08-01T15:34:16.387Z,48.90
2022-08-01T15:37:18.417Z,48.90
2022-08-01T15:40:20.271Z,48.90
2022-08-01T15:43:22.126Z,48.80
2022-08-01T15:46:24.662Z,48.80
2022-08-01T15:49:26.897Z,48.80
2022-08-01T15:52:31.712Z,48.80
2022-08-01T15:55:38.271Z,48.80
2022-08-01T15:58:40.856Z,48.80
2022-08-01T16:01:42.759Z,48.80
2022-08-01T16:04:44.589Z,48.80
2022-08-01T16:07:59.442Z,48.80
2022-08-01T16:11:03.382Z,48.60
2022-08-01T16:14:06.617Z,48.60
2022-08-01T16:17:08.442Z,48.70
2022-08-01T16:20:10.601Z,48.70
2022-08-01T16:23:12.619Z,48.80
2022-08-01T16:26:25.971Z,48.80
2022-08-01T16:29:31.823Z,48.70
2022-08-01T16:32:36.274Z,48.80
2022-08-01T16:35:45.843Z,48.70
2022-08-01T16:38:52.015Z,48.80
2022-08-01T16:41:55.261Z,48.70
2022-08-01T16:44:59.386Z,48.60
2022-08-01T16:48:01.217Z,48.60
2022-08-01T16:51:03.946Z,48.70
2022-08-01T16:54:06.069Z,48.60
2022-08-01T16:57:28.561Z,48.60
2022-08-01T17:00:30.458Z,48.60
2022-08-01T17:03:52.695Z,48.70
2022-08-01T17:06:54.068Z,49.30
2022-08-01T17:09:56.004Z,48.70
2022-08-01T17:12:57.915Z,48.70
2022-08-01T17:16:01.043Z,48.70
2022-08-01T17:19:03.649Z,48.70
2022-08-01T17:22:05.545Z,48.70
2022-08-01T17:25:07.744Z,48.70
2022-08-01T17:28:18.240Z,48.70
2022-08-01T17:31:20.074Z,48.70
2022-08-01T17:34:21.867Z,48.70
2022-08-01T17:37:23.674Z,48.70
2022-08-01T17:40:39.534Z,48.60
2022-08-01T17:43:42.335Z,48.60
2022-08-01T17:46:44.123Z,48.70
2022-08-01T17:49:54.675Z,48.60
2022-08-01T17:52:57.092Z,48.70
2022-08-01T17:56:00.627Z,48.60
2022-08-01T17:59:02.538Z,48.70
2022-08-01T18:02:04.700Z,48.70
2022-08-01T18:05:10.775Z,48.70
2022-08-01T18:08:12.930Z,48.60
2022-08-01T18:11:16.822Z,48.60
2022-08-01T18:14:18.750Z,48.60
2022-08-01T18:17:20.742Z,48.70
2022-08-01T18:20:22.617Z,48.70
2022-08-01T18:23:24.440Z,48.70
2022-08-01T18:26:26.657Z,48.70
2022-08-01T18:29:48.266Z,48.70
2022-08-01T18:32:50.412Z,48.70
2022-08-01T18:35:53.954Z,48.70
2022-08-01T18:38:55.974Z,48.70
2022-08-01T18:42:00.088Z,48.70
2022-08-01T18:45:01.891Z,48.70
2022-08-01T18:48:03.940Z,48.70
2022-08-01T18:51:08.477Z,48.70
2022-08-01T18:54:14.777Z,48.70
2022-08-01T18:57:16.562Z,48.70
2022-08-01T19:00:22.940Z,48.70
2022-08-01T19:03:24.718Z,48.70
2022-08-01T19:06:28.131Z,48.80
2022-08-01T19:09:29.929Z,48.70
2022-08-01T19:12:31.689Z,48.70
2022-08-01T19:15:33.858Z,48.80
2022-08-01T19:18:35.754Z,48.80
2022-08-01T19:21:42.940Z,48.80
2022-08-01T19:24:46.721Z,49.40
2022-08-01T19:27:50.430Z,48.80
2022-08-01T19:30:53.810Z,48.80
2022-08-01T19:33:57.693Z,48.80
2022-08-01T19:36:59.510Z,48.80
2022-08-01T19:40:01.616Z,48.80
2022-08-01T19:43:03.545Z,48.80
2022-08-01T19:46:08.333Z,48.80
2022-08-01T19:49:21.510Z,48.80
2022-08-01T19:52:26.079Z,48.80
2022-08-01T19:55:29.987Z,48.80
2022-08-01T19:58:45.372Z,48.70
2022-08-01T20:01:48.471Z,48.70
2022-08-01T20:04:51.279Z,48.70
2022-08-01T20:07:53.747Z,48.70
2022-08-01T20:10:57.046Z,49.30
2022-08-01T20:14:00.428Z,48.80
2022-08-01T20:17:02.478Z,48.80
2022-08-01T20:20:06.762Z,48.80
2022-08-01T20:23:10.748Z,48.80
2022-08-01T20:26:22.420Z,48.90
2022-08-01T20:29:27.815Z,48.80
2022-08-01T20:32:33.562Z,48.80
2022-08-01T20:35:51.507Z,48.80
2022-08-01T20:38:56.596Z,48.80
2022-08-01T20:42:00.171Z,48.80
2022-08-01T20:45:04.613Z,48.80
2022-08-01T20:48:08.035Z,48.80
2022-08-01T20:51:15.756Z,48.80
2022-08-01T20:54:17.640Z,48.80
2022-08-01T20:57:23.870Z,48.80
2022-08-01T21:00:26.137Z,48.90
2022-08-01T21:03:36.826Z,48.80
2022-08-01T21:06:45.062Z,48.80
2022-08-01T21:10:03.363Z,48.80
2022-08-01T21:13:07.612Z,49.30
2022-08-01T21:16:24.319Z,49.30
2022-08-01T21:19:28.084Z,48.80
2022-08-01T21:22:38.199Z,48.80
2022-08-01T21:25:42.409Z,48.80
2022-08-01T21:28:53.922Z,48.80
2022-08-01T21:32:13.186Z,48.80
2022-08-01T21:35:16.454Z,48.80
2022-08-01T21:38:21.040Z,48.80
2022-08-01T21:41:55.982Z,48.80
2022-08-01T21:44:47.861Z,48.80
2022-08-01T21:47:50.721Z,48.80
2022-08-01T21:51:03.842Z,48.70
2022-08-01T21:54:29.397Z,48.80
2022-08-01T21:57:57.584Z,48.80
2022-08-01T22:01:08.136Z,48.80
2022-08-01T22:04:15.243Z,48.90
2022-08-01T22:07:22.264Z,48.80
2022-08-01T22:10:25.823Z,48.90
2022-08-01T22:13:28.012Z,48.80
2022-08-01T22:16:31.928Z,48.80
2022-08-01T22:19:45.716Z,48.80
2022-08-01T22:22:52.182Z,48.80
2022-08-01T22:25:55.600Z,48.80
2022-08-01T22:28:58.020Z,48.80
2022-08-01T22:32:00.527Z,48.80
2022-08-01T22:35:09.046Z,48.80
2022-08-01T22:38:10.858Z,49.40
2022-08-01T22:41:21.151Z,48.80
2022-08-01T22:44:31.925Z,48.80
2022-08-01T22:48:09.643Z,48.80
2022-08-01T22:51:37.001Z,48.80
2022-08-01T22:54:41.042Z,48.90
2022-08-01T22:57:45.221Z,48.80
2022-08-01T23:01:01.371Z,48.80
2022-08-01T23:04:05.752Z,48.80
2022-08-01T23:07:09.085Z,48.80
2022-08-01T23:10:12.260Z,49.30
2022-08-01T23:13:16.036Z,48.70
2022-08-01T23:16:18.526Z,48.70
2022-08-01T23:19:21.240Z,48.60
2022-08-01T23:22:25.459Z,48.70
2022-08-01T23:25:27.812Z,48.60
2022-08-01T23:28:29.766Z,48.60
2022-08-01T23:32:02.783Z,48.60
2022-08-01T23:34:54.608Z,48.60
2022-08-01T23:38:01.823Z,48.60
2022-08-01T23:41:14.810Z,48.60
2022-08-01T23:44:16.884Z,48.60
2022-08-01T23:47:18.703Z,48.60
2022-08-01T23:50:21.799Z,48.50
2022-08-01T23:53:24.065Z,48.50
2022-08-01T23:56:32.668Z,48.50
2022-08-01T23:59:53.485Z,48.50
